Time;durP1;ratioP1;P1;durP2;ratioP2;P2;SDS_P1;SDS_P2;PMS_P1;PMS_P2;Temp;Humidity;BMP_temperature;BMP_pressure;BME280_temperature;BME280_humidity;BME280_pressure;Samples;Min_cycle;Max_cycle;Signal;HPM_P1;HPM_P2
2023/06/15 00:01:40;;;;;;;4.55;2.70;;;19.80;51.40;;;;;;5024590;28;20085;-70
2023/06/15 00:04:06;;;;;;;5.45;2.40;;;19.80;51.40;;;;;;5025883;28;20147;-70
2023/06/15 00:06:32;;;;;;;5.00;2.60;;;19.80;51.50;;;;;;5018399;28;20042;-70
2023/06/15 00:08:58;;;;;;;4.13;2.53;;;19.70;51.50;;;;;;5019172;28;20041;-69
2023/06/15 00:11:25;;;;;;;5.53;2.42;;;19.70;51.50;;;;;;5019532;28;20046;-69
2023/06/15 00:13:51;;;;;;;4.70;2.50;;;19.60;51.60;;;;;;5019614;28;20041;-69
2023/06/15 00:16:18;;;;;;;3.72;2.40;;;19.60;51.70;;;;;;5032119;28;20048;-69
2023/06/15 00:18:48;;;;;;;3.25;2.15;;;19.60;51.80;;;;;;5029525;28;20045;-69
2023/06/15 00:21:17;;;;;;;4.85;2.60;;;19.60;51.90;;;;;;5044559;28;20088;-69
2023/06/15 00:23:45;;;;;;;2.95;2.50;;;19.50;51.90;;;;;;5020363;28;20073;-69
2023/06/15 00:26:11;;;;;;;5.38;2.50;;;19.50;52.10;;;;;;5019500;28;20038;-69
2023/06/15 00:28:36;;;;;;;4.10;2.47;;;19.40;52.10;;;;;;5004092;28;20037;-69
2023/06/15 00:31:02;;;;;;;6.35;2.58;;;19.40;52.20;;;;;;5015810;28;20038;-69
2023/06/15 00:33:28;;;;;;;3.50;2.50;;;19.30;52.30;;;;;;5032001;28;20062;-69
2023/06/15 00:35:53;;;;;;;3.72;2.53;;;19.30;52.40;;;;;;5031133;28;20049;-69
2023/06/15 00:38:19;;;;;;;6.80;2.80;;;19.30;52.40;;;;;;5031548;28;20520;-69
2023/06/15 00:40:45;;;;;;;5.22;2.90;;;19.20;52.40;;;;;;5015872;28;20049;-69
2023/06/15 00:43:11;;;;;;;4.15;2.65;;;19.20;52.50;;;;;;5032251;28;20378;-69
2023/06/15 00:45:37;;;;;;;3.65;2.40;;;19.20;52.60;;;;;;5021352;28;20053;-69
2023/06/15 00:48:03;;;;;;;5.13;2.83;;;19.10;52.60;;;;;;5032563;28;20041;-69
2023/06/15 00:50:30;;;;;;;3.53;2.53;;;19.10;52.80;;;;;;5016344;28;20054;-69
2023/06/15 00:53:03;;;;;;;5.47;2.78;;;19.00;52.90;;;;;;5021367;28;20061;-70
2023/06/15 00:55:34;;;;;;;5.28;2.45;;;19.00;53.00;;;;;;5023191;28;20054;-70
2023/06/15 00:58:01;;;;;;;4.80;2.35;;;19.00;53.10;;;;;;5033320;28;20044;-70
2023/06/15 01:00:28;;;;;;;6.20;2.78;;;18.90;53.20;;;;;;5006699;28;20485;-70
2023/06/15 01:02:56;;;;;;;4.43;2.70;;;18.90;53.30;;;;;;5030169;28;20401;-70
2023/06/15 01:05:23;;;;;;;6.15;2.63;;;18.80;53.60;;;;;;5015471;28;20056;-69
2023/06/15 01:07:51;;;;;;;7.30;2.30;;;18.80;53.70;;;;;;5011997;28;20397;-69
2023/06/15 01:10:20;;;;;;;5.53;2.80;;;18.70;53.80;;;;;;5024565;28;20045;-69
2023/06/15 01:12:50;;;;;;;4.55;2.95;;;18.70;53.80;;;;;;5016440;28;20125;-69
2023/06/15 01:15:16;;;;;;;4.70;2.58;;;18.70;54.00;;;;;;5021104;28;20042;-69
2023/06/15 01:17:47;;;;;;;4.80;2.78;;;18.60;54.20;;;;;;5014517;28;20072;-69
2023/06/15 01:20:26;;;;;;;4.22;2.55;;;18.60;54.30;;;;;;5028262;28;20040;-69
2023/06/15 01:23:01;;;;;;;3.63;2.38;;;18.60;54.40;;;;;;5012746;28;20044;-69
2023/06/15 01:25:53;;;;;;;4.32;2.97;;;18.50;54.50;;;;;;5032905;28;20071;-69
2023/06/15 01:28:21;;;;;;;6.43;2.85;;;18.50;54.60;;;;;;5016404;28;20477;-69
2023/06/15 01:30:52;;;;;;;5.63;2.90;;;18.40;54.60;;;;;;5026891;28;20050;-69
2023/06/15 01:33:18;;;;;;;4.50;2.63;;;18.40;54.70;;;;;;5013702;28;20041;-69
2023/06/15 01:35:44;;;;;;;5.90;3.10;;;18.40;54.90;;;;;;5027520;28;20036;-70
2023/06/15 01:38:10;;;;;;;6.70;2.83;;;18.30;54.90;;;;;;5019334;28;20049;-69
2023/06/15 01:40:38;;;;;;;3.90;3.08;;;18.30;54.90;;;;;;4995758;28;20062;-69
2023/06/15 01:43:14;;;;;;;4.07;2.80;;;18.30;54.90;;;;;;5025936;28;20508;-69
2023/06/15 01:45:42;;;;;;;4.25;2.58;;;18.20;54.90;;;;;;5037134;28;20060;-69
2023/06/15 01:48:08;;;;;;;3.85;2.40;;;18.20;55.00;;;;;;5023662;28;20046;-69
2023/06/15 01:50:35;;;;;;;5.10;3.25;;;18.20;55.00;;;;;;5030480;28;20052;-69
2023/06/15 01:53:02;;;;;;;6.60;2.97;;;18.20;55.20;;;;;;5029344;28;20455;-69
2023/06/15 01:55:28;;;;;;;6.38;3.10;;;18.10;55.20;;;;;;5018855;28;20046;-69
2023/06/15 01:57:55;;;;;;;4.30;3.00;;;18.10;55.30;;;;;;5013603;28;20092;-69
2023/06/15 02:00:23;;;;;;;6.03;3.13;;;18.10;55.30;;;;;;5023620;28;20044;-69
2023/06/15 02:02:49;;;;;;;7.28;3.50;;;18.00;55.40;;;;;;5020741;28;20092;-69
2023/06/15 02:05:15;;;;;;;5.03;3.33;;;18.00;55.50;;;;;;5025378;28;20041;-70
2023/06/15 02:07:40;;;;;;;5.82;2.70;;;17.90;55.60;;;;;;5015864;28;20095;-70
2023/06/15 02:10:07;;;;;;;3.90;2.90;;;17.90;55.60;;;;;;5024127;28;20044;-68
2023/06/15 02:12:33;;;;;;;4.75;2.90;;;17.90;55.70;;;;;;5029841;28;20132;-68
2023/06/15 02:15:02;;;;;;;4.20;3.13;;;17.80;55.70;;;;;;5005274;28;20121;-68
2023/06/15 02:17:38;;;;;;;7.63;3.03;;;17.80;55.80;;;;;;5030770;28;20040;-68
2023/06/15 02:20:13;;;;;;;3.83;2.78;;;17.80;55.90;;;;;;5027465;28;20091;-68
2023/06/15 02:22:40;;;;;;;4.50;3.10;;;17.80;56.00;;;;;;5028648;28;20116;-68
2023/06/15 02:25:07;;;;;;;4.93;2.78;;;17.70;56.00;;;;;;5021952;28;20386;-68
2023/06/15 02:27:33;;;;;;;4.47;3.17;;;17.70;56.10;;;;;;5013156;28;20057;-68
2023/06/15 02:29:59;;;;;;;5.38;2.72;;;17.70;56.10;;;;;;5020763;28;20033;-68
2023/06/15 02:32:34;;;;;;;4.95;3.17;;;17.60;56.10;;;;;;5023838;28;20540;-69
2023/06/15 02:35:05;;;;;;;3.88;3.15;;;17.60;56.20;;;;;;5019415;28;20492;-68
2023/06/15 02:37:39;;;;;;;6.05;3.33;;;17.60;56.30;;;;;;5130214;27;20390;-68
2023/06/15 02:40:08;;;;;;;6.25;3.20;;;17.50;56.40;;;;;;5120141;27;20044;-68
2023/06/15 02:42:35;;;;;;;4.13;2.80;;;17.50;56.50;;;;;;5115430;28;20040;-68
2023/06/15 02:45:02;;;;;;;4.68;3.20;;;17.40;56.60;;;;;;5116535;28;20051;-68
2023/06/15 02:47:29;;;;;;;6.90;2.88;;;17.40;56.60;;;;;;5107071;28;20115;-68
2023/06/15 02:49:58;;;;;;;7.32;3.85;;;17.40;56.70;;;;;;5115378;28;20049;-68
2023/06/15 02:52:30;;;;;;;4.55;3.03;;;17.40;56.80;;;;;;5117713;27;20093;-68
2023/06/15 02:54:56;;;;;;;5.43;3.10;;;17.30;56.80;;;;;;5104347;28;20040;-68
2023/06/15 02:57:23;;;;;;;7.57;3.50;;;17.30;56.90;;;;;;5092127;28;20040;-68
2023/06/15 02:59:49;;;;;;;6.00;3.05;;;17.30;56.90;;;;;;5113388;28;20040;-68
2023/06/15 03:02:15;;;;;;;4.80;3.20;;;17.30;56.90;;;;;;5124265;28;20035;-68
2023/06/15 03:04:47;;;;;;;4.10;3.33;;;17.20;57.00;;;;;;5118304;28;20039;-68
2023/06/15 03:07:20;;;;;;;6.15;3.30;;;17.20;57.00;;;;;;5116860;28;20040;-68
2023/06/15 03:09:50;;;;;;;4.57;3.10;;;17.20;57.10;;;;;;5095915;28;20081;-68
2023/06/15 03:12:17;;;;;;;6.07;3.47;;;17.10;57.20;;;;;;5126891;27;20390;-68
2023/06/15 03:14:44;;;;;;;4.28;3.20;;;17.10;57.20;;;;;;5096321;28;20047;-68
2023/06/15 03:17:13;;;;;;;4.45;2.53;;;17.00;57.30;;;;;;5144488;27;20035;-68
2023/06/15 03:19:43;;;;;;;4.85;3.10;;;17.00;57.40;;;;;;5126791;28;20061;-68
2023/06/15 03:22:09;;;;;;;4.50;2.97;;;17.00;57.50;;;;;;5129679;27;20046;-68
2023/06/15 03:24:35;;;;;;;4.75;2.90;;;17.00;57.60;;;;;;5108935;28;20044;-68
2023/06/15 03:27:03;;;;;;;4.50;3.05;;;16.90;57.60;;;;;;5133469;27;20483;-68
2023/06/15 03:29:31;;;;;;;4.45;3.28;;;16.90;57.60;;;;;;5127400;28;20452;-68
2023/06/15 03:31:57;;;;;;;6.07;3.40;;;16.90;57.70;;;;;;5112572;27;20036;-68
2023/06/15 03:34:25;;;;;;;4.03;2.92;;;16.90;57.90;;;;;;5106968;28;20086;-68
2023/06/15 03:36:52;;;;;;;6.63;3.28;;;16.80;57.90;;;;;;5107799;28;20499;-68
2023/06/15 03:39:22;;;;;;;4.22;3.13;;;16.90;58.00;;;;;;5126778;28;20050;-68
2023/06/15 03:41:48;;;;;;;6.68;3.60;;;16.80;58.10;;;;;;5114097;28;20047;-67
2023/06/15 03:44:14;;;;;;;6.85;3.90;;;16.80;58.20;;;;;;5114926;28;20036;-68
2023/06/15 03:46:41;;;;;;;4.65;3.63;;;16.70;58.30;;;;;;5113005;28;20105;-68
2023/06/15 03:49:07;;;;;;;5.05;3.42;;;16.70;58.40;;;;;;5094003;28;20044;-68
2023/06/15 03:51:33;;;;;;;4.57;3.72;;;16.70;58.60;;;;;;5100251;28;20050;-68
2023/06/15 03:53:59;;;;;;;7.35;3.63;;;16.70;58.60;;;;;;5094490;28;20111;-68
2023/06/15 03:56:25;;;;;;;5.72;3.80;;;16.60;58.70;;;;;;5104843;28;20052;-68
2023/06/15 03:58:51;;;;;;;7.40;4.03;;;16.60;58.90;;;;;;5112971;28;20427;-68
2023/06/15 04:01:19;;;;;;;6.00;4.03;;;16.60;59.10;;;;;;5100059;28;20495;-68
2023/06/15 04:03:45;;;;;;;7.47;4.28;;;16.60;59.30;;;;;;5094628;28;20036;-68
2023/06/15 04:06:11;;;;;;;5.68;3.60;;;16.60;59.40;;;;;;5084729;28;20042;-68
2023/06/15 04:08:37;;;;;;;7.85;3.42;;;16.60;59.50;;;;;;5112448;28;20119;-68
2023/06/15 04:11:03;;;;;;;4.65;3.30;;;16.50;59.60;;;;;;5109954;28;20134;-68
2023/06/15 04:13:29;;;;;;;5.40;4.03;;;16.50;59.70;;;;;;5094277;28;20047;-68
2023/06/15 04:15:55;;;;;;;6.90;4.05;;;16.50;59.80;;;;;;5108569;28;20036;-68
2023/06/15 04:18:22;;;;;;;6.13;3.97;;;16.50;60.10;;;;;;5093949;28;20046;-68
2023/06/15 04:20:48;;;;;;;5.53;4.00;;;16.50;60.20;;;;;;5079789;28;20036;-68
2023/06/15 04:23:14;;;;;;;5.95;3.85;;;16.50;60.30;;;;;;5110675;28;20032;-69
2023/06/15 04:25:43;;;;;;;5.53;4.18;;;16.50;60.40;;;;;;5099880;28;20073;-70
2023/06/15 04:28:12;;;;;;;7.50;4.00;;;16.50;60.40;;;;;;5110244;28;20031;-70
2023/06/15 04:30:40;;;;;;;6.10;3.50;;;16.50;60.60;;;;;;5109323;28;20032;-70
2023/06/15 04:33:13;;;;;;;5.28;3.78;;;16.50;60.80;;;;;;5094360;28;20252;-70
2023/06/15 04:35:45;;;;;;;5.75;3.72;;;16.50;60.90;;;;;;5098955;28;20441;-69
2023/06/15 04:38:15;;;;;;;5.78;3.80;;;16.50;60.90;;;;;;5111947;28;20059;-69
2023/06/15 04:40:46;;;;;;;7.60;4.25;;;16.50;61.00;;;;;;5112163;28;20059;-69
2023/06/15 04:43:11;;;;;;;7.07;3.78;;;16.50;61.10;;;;;;5094912;28;20050;-70
2023/06/15 04:45:37;;;;;;;8.85;4.18;;;16.50;61.30;;;;;;5109782;28;20039;-70
2023/06/15 04:48:03;;;;;;;7.32;4.32;;;16.50;61.50;;;;;;5103471;28;20040;-69
2023/06/15 04:50:32;;;;;;;8.35;4.28;;;16.60;61.80;;;;;;5100913;28;20074;-69
2023/06/15 04:52:58;;;;;;;9.05;5.43;;;16.60;62.00;;;;;;5068203;28;20399;-69
2023/06/15 04:55:24;;;;;;;7.30;5.38;;;16.60;62.30;;;;;;5109238;28;20100;-69
2023/06/15 04:57:50;;;;;;;7.35;4.22;;;16.60;62.80;;;;;;5081025;28;20044;-69
2023/06/15 05:00:16;;;;;;;9.30;4.32;;;16.60;63.00;;;;;;5096559;28;20038;-69
2023/06/15 05:02:42;;;;;;;7.53;5.07;;;16.60;63.60;;;;;;5105465;28;20042;-69
2023/06/15 05:05:08;;;;;;;7.50;5.10;;;16.70;63.60;;;;;;5109027;28;20031;-70
2023/06/15 05:07:34;;;;;;;7.07;4.72;;;16.70;63.90;;;;;;5106984;28;20043;-69
2023/06/15 05:10:00;;;;;;;7.28;4.78;;;16.70;64.40;;;;;;5103443;28;20471;-70
2023/06/15 05:12:26;;;;;;;8.15;5.15;;;16.80;64.90;;;;;;5097692;28;20063;-70
2023/06/15 05:14:52;;;;;;;8.57;5.40;;;16.80;65.30;;;;;;5106994;28;20036;-70
2023/06/15 05:17:17;;;;;;;7.50;5.65;;;17.00;65.40;;;;;;5097702;28;20443;-70
2023/06/15 05:19:43;;;;;;;6.40;3.72;;;17.20;65.40;;;;;;5095672;28;20040;-70
2023/06/15 05:22:09;;;;;;;8.10;4.53;;;17.40;65.20;;;;;;5092717;28;20042;-70
2023/06/15 05:24:35;;;;;;;7.45;4.63;;;17.70;64.50;;;;;;5092681;28;20115;-70
2023/06/15 05:27:02;;;;;;;6.68;4.05;;;18.00;63.60;;;;;;5093991;28;20040;-70
2023/06/15 05:29:28;;;;;;;10.23;4.38;;;18.40;62.90;;;;;;5075605;28;20063;-70
2023/06/15 05:31:59;;;;;;;7.70;4.35;;;18.70;62.00;;;;;;5081680;28;20035;-70
2023/06/15 05:34:25;;;;;;;5.15;3.80;;;19.20;61.40;;;;;;5092831;28;20048;-70
2023/06/15 05:36:51;;;;;;;7.55;3.58;;;19.70;60.10;;;;;;5075394;28;20056;-70
2023/06/15 05:39:17;;;;;;;8.35;3.85;;;20.10;58.70;;;;;;5093417;28;20036;-70
2023/06/15 05:41:43;;;;;;;5.78;2.83;;;20.50;57.10;;;;;;5103893;28;20048;-69
2023/06/15 05:44:08;;;;;;;6.53;3.40;;;20.80;56.10;;;;;;5075444;28;20040;-70
2023/06/15 05:46:34;;;;;;;5.32;3.28;;;21.10;54.80;;;;;;5092069;28;20046;-70
2023/06/15 05:49:00;;;;;;;9.13;3.92;;;21.30;54.00;;;;;;5075674;28;20109;-70
2023/06/15 05:51:25;;;;;;;7.40;3.80;;;21.70;53.80;;;;;;5091971;28;20559;-70
2023/06/15 05:53:51;;;;;;;6.35;3.28;;;22.00;52.90;;;;;;5092496;28;20036;-71
2023/06/15 05:56:17;;;;;;;7.07;3.45;;;22.30;51.20;;;;;;5102838;28;20044;-71
2023/06/15 05:58:43;;;;;;;5.13;2.80;;;22.50;50.70;;;;;;5091813;28;20038;-72
2023/06/15 06:01:08;;;;;;;5.55;2.60;;;22.80;50.40;;;;;;5075124;28;20036;-72
2023/06/15 06:03:35;;;;;;;5.88;3.10;;;23.10;49.50;;;;;;5091884;28;20058;-71
2023/06/15 06:06:02;;;;;;;8.15;3.50;;;23.50;48.90;;;;;;5082344;28;20041;-71
2023/06/15 06:08:27;;;;;;;6.00;3.15;;;24.00;47.60;;;;;;5096522;28;20102;-71
2023/06/15 06:10:53;;;;;;;6.40;2.58;;;24.30;46.00;;;;;;5110190;28;20097;-71
2023/06/15 06:13:19;;;;;;;6.00;3.13;;;24.60;45.60;;;;;;5094309;28;20391;-71
2023/06/15 06:15:44;;;;;;;6.72;3.17;;;25.00;45.90;;;;;;5091864;28;20135;-69
2023/06/15 06:18:10;;;;;;;6.80;2.70;;;25.40;44.40;;;;;;5091821;28;20048;-69
2023/06/15 06:20:36;;;;;;;4.38;2.42;;;25.60;43.20;;;;;;5082678;28;20050;-70
2023/06/15 06:23:03;;;;;;;4.43;2.28;;;25.80;43.10;;;;;;5095208;28;20036;-70
2023/06/15 06:25:29;;;;;;;4.20;2.72;;;26.10;42.10;;;;;;5091743;28;20487;-70
2023/06/15 06:27:54;;;;;;;4.78;2.50;;;26.40;41.20;;;;;;5093064;28;20046;-70
2023/06/15 06:30:20;;;;;;;5.35;2.45;;;26.60;40.30;;;;;;5092102;28;20051;-70
2023/06/15 06:32:46;;;;;;;5.00;2.40;;;26.70;40.00;;;;;;5091699;28;20048;-70
2023/06/15 06:35:12;;;;;;;5.30;2.53;;;26.80;39.30;;;;;;5109616;28;20043;-70
2023/06/15 06:37:37;;;;;;;4.38;2.65;;;26.90;39.60;;;;;;5111720;28;20085;-70
2023/06/15 06:40:04;;;;;;;5.38;2.60;;;27.00;38.50;;;;;;5112143;28;20136;-70
2023/06/15 06:42:30;;;;;;;5.18;2.65;;;27.10;38.10;;;;;;5095011;28;20471;-71
2023/06/15 06:44:56;;;;;;;6.10;2.60;;;27.30;37.30;;;;;;5091478;28;20514;-71
2023/06/15 06:47:21;;;;;;;5.20;2.40;;;27.40;37.30;;;;;;5092121;28;20040;-71
2023/06/15 06:49:47;;;;;;;5.07;2.53;;;27.40;36.40;;;;;;5111960;28;20363;-71
2023/06/15 06:52:13;;;;;;;6.93;3.10;;;27.20;36.20;;;;;;5111761;28;20126;-71
2023/06/15 06:54:39;;;;;;;5.47;2.28;;;27.00;36.20;;;;;;5111682;28;20043;-71
2023/06/15 06:57:05;;;;;;;5.60;2.80;;;27.00;36.80;;;;;;5111702;28;20047;-71
2023/06/15 06:59:30;;;;;;;7.05;2.65;;;27.10;36.80;;;;;;5111789;28;20040;-71
2023/06/15 07:01:56;;;;;;;3.08;2.17;;;27.10;36.90;;;;;;5095333;28;20110;-71
2023/06/15 07:04:22;;;;;;;4.72;2.30;;;27.10;36.40;;;;;;5091295;28;20044;-71
2023/06/15 07:06:48;;;;;;;4.85;2.33;;;27.20;36.10;;;;;;5091289;28;20051;-71
2023/06/15 07:09:13;;;;;;;6.47;2.25;;;27.30;36.60;;;;;;5091312;28;20078;-71
2023/06/15 07:11:39;;;;;;;4.70;2.20;;;27.40;36.60;;;;;;5091569;28;20055;-71
2023/06/15 07:14:05;;;;;;;5.47;2.47;;;27.50;36.50;;;;;;5091352;28;20491;-71
2023/06/15 07:16:30;;;;;;;4.38;1.92;;;27.70;36.40;;;;;;5109866;28;20104;-71
2023/06/15 07:18:58;;;;;;;5.30;2.53;;;27.80;35.70;;;;;;5094673;28;20039;-71
2023/06/15 07:21:24;;;;;;;5.30;2.25;;;27.80;35.50;;;;;;5111565;28;20047;-71
2023/06/15 07:23:49;;;;;;;5.57;2.50;;;27.90;35.50;;;;;;5097257;28;20035;-71
2023/06/15 07:26:15;;;;;;;3.88;2.00;;;28.00;35.30;;;;;;5116664;28;20123;-71
2023/06/15 07:28:41;;;;;;;6.93;2.50;;;28.10;35.30;;;;;;5101239;28;20040;-71
2023/06/15 07:31:06;;;;;;;5.95;2.33;;;28.30;35.20;;;;;;5095234;28;20132;-71
2023/06/15 07:33:32;;;;;;;5.03;2.17;;;28.40;35.10;;;;;;5094878;28;20044;-71
2023/06/15 07:35:58;;;;;;;6.88;2.50;;;28.60;35.00;;;;;;5094591;28;20060;-71
2023/06/15 07:38:23;;;;;;;4.85;2.33;;;28.60;34.40;;;;;;5095021;28;20043;-71
2023/06/15 07:40:49;;;;;;;4.13;2.20;;;28.60;34.60;;;;;;5094780;28;20036;-71
2023/06/15 07:43:15;;;;;;;3.83;2.22;;;28.60;34.60;;;;;;5111262;28;20043;-71
2023/06/15 07:45:44;;;;;;;5.00;2.15;;;28.70;34.90;;;;;;5115246;28;20051;-71
2023/06/15 07:48:10;;;;;;;5.47;2.17;;;28.80;34.40;;;;;;5098030;28;20504;-71
2023/06/15 07:50:36;;;;;;;6.13;1.88;;;28.90;34.10;;;;;;5115080;28;20090;-71
2023/06/15 07:53:02;;;;;;;2.67;1.90;;;28.90;34.10;;;;;;5114812;28;20075;-71
2023/06/15 07:55:28;;;;;;;5.22;2.15;;;28.80;33.80;;;;;;5102406;28;20040;-69
2023/06/15 07:57:53;;;;;;;4.63;2.75;;;28.80;33.70;;;;;;5094741;28;20036;-69
2023/06/15 08:00:20;;;;;;;9.82;3.47;;;28.80;33.20;;;;;;5077423;28;20403;-69
2023/06/15 08:02:45;;;;;;;3.00;1.98;;;28.80;33.30;;;;;;5095715;28;20071;-70
2023/06/15 08:05:11;;;;;;;5.35;2.20;;;28.90;33.00;;;;;;5094178;28;20114;-70
2023/06/15 08:07:37;;;;;;;3.88;1.95;;;28.80;32.50;;;;;;5094491;28;20081;-69
2023/06/15 08:10:03;;;;;;;4.35;2.25;;;28.90;32.10;;;;;;5108303;28;20449;-69
2023/06/15 08:12:29;;;;;;;5.70;2.38;;;28.80;31.30;;;;;;5114596;28;20066;-69
2023/06/15 08:14:55;;;;;;;4.38;1.88;;;28.70;31.60;;;;;;5114500;28;20041;-69
2023/06/15 08:17:20;;;;;;;5.65;2.20;;;28.60;31.90;;;;;;5114373;28;20051;-69
2023/06/15 08:19:47;;;;;;;5.60;2.33;;;28.60;31.50;;;;;;5114397;28;20393;-70
2023/06/15 08:22:13;;;;;;;6.80;2.28;;;28.50;31.50;;;;;;5114671;28;20075;-70
2023/06/15 08:24:39;;;;;;;3.80;2.30;;;28.40;31.80;;;;;;5084000;28;20043;-70
2023/06/15 08:27:05;;;;;;;4.80;2.75;;;28.30;31.90;;;;;;5093866;28;20043;-70
2023/06/15 08:29:31;;;;;;;5.90;2.53;;;28.20;31.70;;;;;;5093967;28;20055;-69
2023/06/15 08:31:57;;;;;;;3.67;2.10;;;27.90;32.30;;;;;;5093832;28;20040;-69
2023/06/15 08:34:22;;;;;;;4.97;2.10;;;27.90;32.50;;;;;;5093642;28;20065;-69
2023/06/15 08:36:49;;;;;;;3.78;2.22;;;27.80;32.30;;;;;;5093347;28;20048;-70
2023/06/15 08:39:16;;;;;;;4.18;2.20;;;27.80;32.50;;;;;;5109851;28;20151;-69
2023/06/15 08:41:45;;;;;;;4.50;1.88;;;27.70;32.40;;;;;;5114058;28;20079;-69
2023/06/15 08:44:11;;;;;;;5.82;2.10;;;27.80;32.80;;;;;;5114249;28;20058;-69
2023/06/15 08:46:39;;;;;;;5.40;2.30;;;27.80;32.40;;;;;;5097098;28;20524;-69
2023/06/15 08:49:05;;;;;;;5.03;2.10;;;27.80;32.30;;;;;;5114133;28;20390;-70
2023/06/15 08:51:31;;;;;;;3.80;2.08;;;27.90;32.40;;;;;;5113881;28;20628;-69
2023/06/15 08:53:57;;;;;;;4.57;2.10;;;27.90;32.50;;;;;;5097746;28;20058;-69
2023/06/15 08:56:23;;;;;;;4.13;2.50;;;28.00;32.60;;;;;;5093454;28;20123;-69
2023/06/15 08:58:49;;;;;;;5.22;2.25;;;28.00;32.30;;;;;;5093238;28;20158;-69
2023/06/15 09:01:22;;;;;;;3.50;2.38;;;28.00;32.00;;;;;;5094584;28;20078;-69
2023/06/15 09:03:50;;;;;;;;;;;28.00;31.70;;;;;;5093923;28;20386;-69
2023/06/15 09:06:16;;;;;;;3.88;2.40;;;28.10;32.00;;;;;;5094882;28;19922;-69
2023/06/15 09:08:44;;;;;;;2.83;2.00;;;28.10;31.50;;;;;;5113729;28;20123;-69
2023/06/15 09:11:10;;;;;;;4.38;2.65;;;28.10;31.70;;;;;;5113422;28;20076;-69
2023/06/15 09:13:36;;;;;;;3.55;2.15;;;28.10;31.50;;;;;;5113518;28;20039;-69
2023/06/15 09:16:02;;;;;;;3.78;2.03;;;28.30;31.70;;;;;;5113171;28;20056;-69
2023/06/15 09:18:28;;;;;;;5.03;2.20;;;28.30;31.50;;;;;;5113250;28;20054;-69
2023/06/15 09:20:59;;;;;;;6.60;2.38;;;28.30;31.10;;;;;;5107760;28;20040;-69
2023/06/15 09:23:25;;;;;;;5.78;2.72;;;28.30;30.90;;;;;;5109088;28;20035;-69
2023/06/15 09:25:52;;;;;;;4.22;2.20;;;28.30;30.40;;;;;;5113192;28;20054;-69
2023/06/15 09:28:24;;;;;;;5.07;2.30;;;28.30;30.20;;;;;;5113224;28;20039;-69
2023/06/15 09:30:55;;;;;;;4.63;2.53;;;28.30;30.30;;;;;;5112774;28;20055;-69
2023/06/15 09:33:22;;;;;;;5.25;2.60;;;28.30;30.30;;;;;;5111677;28;20044;-70
2023/06/15 09:35:57;;;;;;;5.10;2.10;;;28.40;30.00;;;;;;5104591;28;20052;-69
2023/06/15 09:38:23;;;;;;;4.53;2.20;;;28.40;30.40;;;;;;5072407;28;20174;-69
2023/06/15 09:40:49;;;;;;;4.03;2.17;;;28.40;30.50;;;;;;5071094;28;20043;-70
2023/06/15 09:43:16;;;;;;;4.10;2.08;;;28.50;30.80;;;;;;5064811;28;20483;-69
2023/06/15 09:45:54;;;;;;;9.52;2.58;;;28.50;30.80;;;;;;5090670;28;20530;-69
2023/06/15 09:48:21;;;;;;;5.80;2.17;;;28.50;30.20;;;;;;5091265;28;20051;-69
2023/06/15 09:50:53;;;;;;;5.45;1.90;;;28.50;30.50;;;;;;5100986;28;20111;-69
2023/06/15 09:53:19;;;;;;;5.45;2.63;;;28.60;30.80;;;;;;5112209;28;20036;-69
2023/06/15 09:55:48;;;;;;;4.25;2.15;;;28.60;31.00;;;;;;5094431;28;20391;-69
2023/06/15 09:58:14;;;;;;;3.97;2.45;;;28.70;30.60;;;;;;5111313;28;20451;-69
2023/06/15 10:00:41;;;;;;;5.57;2.30;;;28.80;30.80;;;;;;5109951;28;20051;-69
2023/06/15 10:03:10;;;;;;;2.70;2.00;;;28.80;30.40;;;;;;5094656;28;20044;-69
2023/06/15 10:05:43;;;;;;;2.83;2.10;;;28.90;30.20;;;;;;5111242;28;20119;-69
2023/06/15 10:08:12;;;;;;;4.85;2.67;;;28.80;29.70;;;;;;5094182;28;20040;-69
2023/06/15 10:10:40;;;;;;;5.53;2.13;;;28.70;30.00;;;;;;5111079;28;20067;-69
2023/06/15 10:13:10;;;;;;;3.55;2.13;;;28.60;30.40;;;;;;5111558;28;20040;-69
2023/06/15 10:15:36;;;;;;;5.00;2.42;;;28.70;30.30;;;;;;5101346;28;20051;-69
2023/06/15 10:18:05;;;;;;;4.90;2.20;;;28.70;30.10;;;;;;5090880;28;20050;-69
2023/06/15 10:20:33;;;;;;;4.78;2.28;;;28.80;29.90;;;;;;5091190;28;20105;-69
2023/06/15 10:23:05;;;;;;;4.45;2.58;;;28.80;29.50;;;;;;5090446;28;20483;-69
2023/06/15 10:25:31;;;;;;;4.65;2.30;;;28.90;29.50;;;;;;5074293;28;20065;-69
2023/06/15 10:28:02;;;;;;;3.25;2.20;;;28.90;29.50;;;;;;5091014;28;20123;-69
2023/06/15 10:31:15;;;;;;;3.17;2.35;;;28.90;29.50;;;;;;5084809;28;20539;-69
2023/06/15 10:33:56;;;;;;;6.47;2.78;;;29.00;29.60;;;;;;5111139;28;20518;-69
2023/06/15 10:36:28;;;;;;;4.35;2.55;;;29.10;29.00;;;;;;5110777;28;20115;-69
2023/06/15 10:39:01;;;;;;;5.17;2.73;;;29.20;28.80;;;;;;5111976;28;20063;-68
2023/06/15 10:41:27;;;;;;;4.70;2.47;;;29.10;29.20;;;;;;5111993;28;20277;-69
2023/06/15 10:44:01;;;;;;;4.78;2.40;;;29.10;29.30;;;;;;5107921;28;20282;-69
2023/06/15 10:46:28;;;;;;;3.67;2.28;;;29.30;29.30;;;;;;5090517;28;20079;-69
2023/06/15 10:49:01;;;;;;;4.43;2.28;;;29.30;29.80;;;;;;5073729;28;20040;-69
2023/06/15 10:51:29;;;;;;;3.63;2.47;;;29.40;29.30;;;;;;5073787;28;20040;-69
2023/06/15 10:53:55;;;;;;;3.60;2.50;;;29.50;29.20;;;;;;5090432;28;20040;-69
2023/06/15 10:56:21;;;;;;;4.20;2.40;;;29.50;29.80;;;;;;5109883;28;20379;-69
2023/06/15 10:58:56;;;;;;;4.82;2.30;;;29.50;28.90;;;;;;5113836;28;20035;-70
2023/06/15 11:01:27;;;;;;;4.32;2.35;;;29.50;29.40;;;;;;5115102;28;20032;-71
2023/06/15 11:03:56;;;;;;;5.55;2.28;;;29.50;29.00;;;;;;5114957;28;20052;-70
2023/06/15 11:06:30;;;;;;;4.97;2.10;;;29.50;29.00;;;;;;5114671;28;20047;-70
2023/06/15 11:09:01;;;;;;;3.53;2.63;;;29.40;29.20;;;;;;5114606;28;20039;-71
2023/06/15 11:11:38;;;;;;;5.85;2.45;;;29.50;29.30;;;;;;5097310;28;20550;-70
2023/06/15 11:14:20;;;;;;;4.97;2.10;;;29.60;29.60;;;;;;5114734;28;20394;-69
2023/06/15 11:17:04;;;;;;;2.90;2.03;;;29.70;29.40;;;;;;5097322;28;20132;-69
2023/06/15 11:19:29;;;;;;;;;;;29.80;28.70;;;;;;5114742;28;20039;-69
2023/06/15 11:22:06;;;;;;;3.22;2.10;;;29.80;29.60;;;;;;5089431;28;19923;-69
2023/06/15 11:24:37;;;;;;;3.17;2.10;;;29.90;28.70;;;;;;5093802;28;20109;-69
2023/06/15 11:27:05;;;;;;;5.15;2.13;;;29.90;29.00;;;;;;5093275;28;20044;-68
2023/06/15 11:29:34;;;;;;;3.70;2.00;;;29.90;29.20;;;;;;5094985;28;20043;-69
2023/06/15 11:32:04;;;;;;;2.22;1.80;;;29.90;29.00;;;;;;5093804;28;20040;-68
2023/06/15 11:34:36;;;;;;;2.50;2.00;;;29.90;28.80;;;;;;5093989;28;20036;-68
2023/06/15 11:37:02;;;;;;;4.22;2.17;;;29.90;28.90;;;;;;5107285;28;20052;-68
2023/06/15 11:39:29;;;;;;;3.00;1.98;;;29.90;28.90;;;;;;5113800;28;20035;-69
2023/06/15 11:41:57;;;;;;;6.40;2.60;;;30.00;28.90;;;;;;5113847;28;20043;-70
2023/06/15 11:44:26;;;;;;;2.92;1.80;;;30.10;28.90;;;;;;5097080;28;20432;-70
2023/06/15 11:46:58;;;;;;;3.58;2.13;;;30.10;28.60;;;;;;5113805;28;20126;-70
2023/06/15 11:49:25;;;;;;;2.85;1.83;;;30.20;28.70;;;;;;5102342;28;20040;-70
2023/06/15 11:51:53;;;;;;;3.63;2.13;;;30.20;28.70;;;;;;5093729;28;20127;-69
2023/06/15 11:54:26;;;;;;;3.35;2.05;;;30.10;28.60;;;;;;5093490;28;20440;-70
2023/06/15 11:56:54;;;;;;;2.47;1.77;;;30.20;29.30;;;;;;5093142;28;20119;-70
2023/06/15 11:59:21;;;;;;;3.55;2.10;;;30.20;29.20;;;;;;5092780;28;20044;-70
2023/06/15 12:01:47;;;;;;;4.22;2.10;;;30.40;29.20;;;;;;5093197;28;20044;-70
2023/06/15 12:04:13;;;;;;;3.92;2.15;;;30.40;29.10;;;;;;5087486;28;20032;-69
2023/06/15 12:07:01;;;;;;;4.57;2.13;;;30.50;29.30;;;;;;5103390;28;20047;-70
2023/06/15 12:09:27;;;;;;;2.58;1.83;;;30.50;28.60;;;;;;5083402;28;20109;-70
2023/06/15 12:11:52;;;;;;;2.58;1.98;;;30.50;28.20;;;;;;5069316;28;20052;-70
2023/06/15 12:14:21;;;;;;;2.63;2.17;;;30.50;27.80;;;;;;5086178;28;20036;-70
2023/06/15 12:16:51;;;;;;;3.38;2.05;;;30.50;27.90;;;;;;5087107;28;20119;-70
2023/06/15 12:19:18;;;;;;;4.40;1.98;;;30.40;27.90;;;;;;5086569;28;20028;-71
2023/06/15 12:21:44;;;;;;;3.42;1.90;;;30.40;27.70;;;;;;5087194;28;20040;-71
2023/06/15 12:24:14;;;;;;;4.40;2.20;;;30.40;27.90;;;;;;5086386;28;20035;-70
2023/06/15 12:26:41;;;;;;;3.42;2.13;;;30.40;28.10;;;;;;5086915;28;20049;-71
2023/06/15 12:29:14;;;;;;;5.57;2.15;;;30.50;28.30;;;;;;5086898;28;20040;-70
2023/06/15 12:31:41;;;;;;;3.20;1.92;;;30.60;27.80;;;;;;5085140;28;20093;-71
2023/06/15 12:34:08;;;;;;;4.18;2.35;;;30.70;27.60;;;;;;5085830;28;20043;-70
2023/06/15 12:36:36;;;;;;;5.20;2.35;;;30.70;28.00;;;;;;5069225;28;20697;-70
2023/06/15 12:39:10;;;;;;;2.78;2.08;;;30.70;27.90;;;;;;5094610;28;20429;-70
2023/06/15 12:41:43;;;;;;;3.60;2.10;;;30.60;28.10;;;;;;5113100;28;20065;-69
2023/06/15 12:44:09;;;;;;;3.92;2.03;;;30.70;28.70;;;;;;5087616;28;20036;-74
2023/06/15 12:46:38;;;;;;;3.33;1.90;;;30.70;28.30;;;;;;5093451;28;20550;-74
2023/06/15 12:49:07;;;;;;;3.28;2.10;;;30.80;28.40;;;;;;5093415;28;20051;-74
2023/06/15 12:51:33;;;;;;;4.50;2.33;;;30.90;28.10;;;;;;5076801;28;20040;-74